KCCY/CCY METAR and TAF weather

Enter ICAO airport designator
Station Type Date Time Source
KCCY METAR 2018/10/19 16:15 UTC NOAA

KCCY 191615Z AUTO 22014G20KT 10SM BKN015 OVC020 12/10 A2988 RMK AO2


Station Type Date Time Source
KCCY Decoded METAR 2018/10/19 16:15 UTC NOAA

Charles City, IA, United States (KCCY) 43-04N 092-37W
Oct 19, 2018 - 12:15 PM EDT / 2018.10.19 1615 UTC
Wind: from the SW (220 degrees) at 16 MPH (14 KT) gusting to 23 MPH (20 KT):0
Visibility: 10 mile(s):0
Sky conditions: overcast
Temperature: 53 F (12 C)
Dew Point: 50 F (10 C)
Relative Humidity: 87%
Pressure (altimeter): 29.88 in. Hg (1011 hPa)
ob: KCCY 191615Z AUTO 22014G20KT 10SM BKN015 OVC020 12/10 A2988 RMK AO2
cycle: 16

Station Type Date Time Source
KCCY TAF UTC NOAA

Error!


Example: see airport list